Flight Track Log - Related Links

Times and Time Zones

All times are in EDT time to prevent confusion due to time zone crossing. See the B-18725 flight status page for this flight to view local times or setup timezone preferences in your user account.

Time Position Orientation Groundspeed Altitude Reporting Facility
EDT Latitude Longitude Course Direction KTS MPH feet Rate Location/Type
Wed 01:17:47 AM 61.2010 -150.0150 345° North 165 190 800  Level FlightAware ADS-B
Wed 01:18:12 AM 61.2190 -150.0330 334° Northwest 174 200 1,500 1,309 Climbing FlightAware ADS-B
Wed 01:18:42 AM 61.2390 -150.0690 319° Northwest 202 232 2,000 933 Climbing FlightAware ADS-B
Wed 01:18:57 AM 61.2500 -150.0870 322° Northwest 217 250 2,200 1,050 Climbing FlightAware ADS-B
Wed 01:19:22 AM 61.2720 -150.1220 323° Northwest 245 282 2,700 1,200 Climbing FlightAware ADS-B
Wed 01:19:52 AM 61.3000 -150.1710 320° Northwest 276 318 3,300 1,745 Climbing FlightAware ADS-B
Wed 01:20:17 AM 61.3260 -150.2110 324° Northwest 287 330 4,300 2,850 Climbing FlightAware ADS-B
Wed 01:20:32 AM 61.3450 -150.2240 342° North 286 329 5,200 2,700 Climbing FlightAware ADS-B
Wed 01:20:57 AM 61.3760 -150.2080 14° North 293 337 6,100 2,400 Climbing FlightAware ADS-B
Wed 01:21:17 AM 61.3930 -150.1670 49° Northeast 288 331 7,000 2,550 Climbing FlightAware ADS-B
Wed 01:21:37 AM 61.3970 -150.1100 82° East 291 335 7,800 2,640 Climbing FlightAware ADS-B
Wed 01:22:07 AM 61.3920 -150.0360 98° East 287 330 9,200 2,400 Climbing FlightAware ADS-B
Wed 01:22:52 AM 61.3820 -149.9010 99° East 310 357 10,800 1,533 Climbing FlightAware ADS-B
Wed 01:23:37 AM 61.3690 -149.7610 101° East 355 409 11,500 1,129 Climbing FlightAware ADS-B
Wed 01:24:17 AM 61.3510 -149.6210 105° East 391 450 12,400 2,064 Climbing FlightAware ADS-B
Wed 01:25:42 AM 61.3090 -149.3180 106° East 422 486 15,800 2,496 Climbing FlightAware ADS-B
Wed 01:26:22 AM 61.2860 -149.1570 106° East 437 503 17,600 2,274 Climbing FlightAware ADS-B
Wed 01:27:17 AM 61.2510 -148.9190 107° East 465 535 19,400 1,958 Climbing FlightAware ADS-B
Wed 01:27:57 AM 61.2280 -148.7550 106° East 484 557 20,700 2,047 Climbing FlightAware ADS-B
Wed 01:28:42 AM 61.1940 -148.5300 107° East 507 583 22,300 2,067 Climbing FlightAware ADS-B
Wed 01:29:27 AM 61.1630 -148.3190 107° East 522 601 23,800 1,920 Climbing FlightAware ADS-B
Wed 01:29:57 AM 61.1420 -148.1780 107° East 532 612 24,700 1,200 Climbing FlightAware ADS-B
Wed 01:30:47 AM 61.1080 -147.9520 107° East 538 619 25,400 1,067 Climbing FlightAware ADS-B
Wed 01:31:27 AM 61.0780 -147.7490 107° East 538 619 26,300 2,175 Climbing FlightAware ADS-B
Wed 01:32:07 AM 61.0430 -147.5320 108° East 562 647 28,300 1,412 Climbing FlightAware ADS-B
Wed 01:32:52 AM 61.0120 -147.3230 107° East 562 647 28,300  Level FlightAware ADS-B
Wed 01:33:32 AM 60.9860 -147.1490 107° East 562 647 28,300  Level FlightAware ADS-B
Wed 01:34:12 AM 60.9600 -146.9740 107° East 562 647 28,300  Level FlightAware ADS-B
Wed 01:35:02 AM 60.9280 -146.7570 107° East 562 647 28,300  Level FlightAware ADS-B
Wed 01:35:42 AM 60.9020 -146.5830 107° East 562 647 28,300 4,020 Level FlightAware ADS-B
Wed 01:36:42 AM 60.8000 -146.1000 107° East 570 656 35,000 3,350 Climbing Anchorage Center
Wed 01:37:42 AM 60.7667 -145.8500 105° East 580 667 35,000  Level Anchorage Center
Wed 01:38:43 AM 60.7000 -145.5333 113° Southeast 570 656 35,000  Level Anchorage Center
Wed 01:39:43 AM 60.6500 -145.2333 109° East 560 644 35,000  Level Anchorage Center
Wed 01:40:43 AM 60.6000 -144.9333 109° East 570 656 35,000  Level Anchorage Center
Wed 01:41:43 AM 60.5333 -144.6167 113° Southeast 570 656 35,000  Level Anchorage Center
Wed 01:42:43 AM 60.4833 -144.3167 109° East 570 656 35,000  Level Anchorage Center
Wed 01:43:43 AM 60.4333 -144.0167 109° East 580 667 35,000  Level Anchorage Center
Wed 01:44:43 AM 60.3667 -143.7000 113° Southeast 570 656 35,000  Level Anchorage Center
Wed 01:45:44 AM 60.3167 -143.4000 108° East 580 667 35,000  Level Anchorage Center
Wed 01:46:44 AM 60.2500 -143.1000 114° Southeast 580 667 35,000  Level Anchorage Center
Wed 01:47:44 AM 60.1833 -142.7833 113° Southeast 580 667 35,000  Level Anchorage Center
Wed 01:48:44 AM 60.1333 -142.4833 108° East 570 656 35,000  Level Anchorage Center
Wed 01:49:44 AM 60.0667 -142.1833 114° Southeast 580 667 35,000  Level Anchorage Center
Wed 01:50:44 AM 60.0000 -141.8833 114° Southeast 580 667 35,000  Level Anchorage Center
Wed 01:51:44 AM 59.9333 -141.5833 114° Southeast 580 667 35,000  Level Anchorage Center
Wed 01:52:44 AM 59.8833 -141.2833 108° East 580 667 35,000  Level Anchorage Center
Wed 01:53:45 AM 59.8167 -141.0000 115° Southeast 580 667 35,000  Level Anchorage Center
Wed 01:54:45 AM 59.7500 -140.7000 114° Southeast 590 679 35,000  Level Anchorage Center
Wed 01:55:45 AM 59.6833 -140.4000 114° Southeast 590 679 35,000  Level Anchorage Center
Wed 01:56:45 AM 59.6167 -140.1000 114° Southeast 590 679 35,000  Level Anchorage Center
Wed 01:57:45 AM 59.5333 -139.8000 119° Southeast 610 702 35,000  Level Anchorage Center
Wed 01:58:45 AM 59.4833 -139.5167 109° East 590 679 35,000  Level Anchorage Center
Wed 01:59:45 AM 59.4500 -139.1500 100° East 600 690 35,000  Level Anchorage Center
Wed 02:00:45 AM 59.4167 -138.8167 101° East 610 702 35,000  Level Anchorage Center
Wed 02:01:45 AM 59.3667 -138.5000 107° East 600 690 35,000  Level Anchorage Center
Wed 02:02:45 AM 59.3333 -138.1833 102° East 610 702 35,000  Level Anchorage Center
Wed 02:03:45 AM 59.3000 -137.8667 102° East 600 690 35,000  Level Anchorage Center
Wed 02:04:45 AM 59.2500 -137.5333 106° East 600 690 35,000  Level Anchorage Center
Wed 02:05:45 AM 59.2167 -137.2333 102° East 600 690 35,000  Level Anchorage Center
Wed 02:07:46 AM 59.1333 -136.5833 104° East 610 702 35,000  Level Anchorage Center
Wed 02:08:46 AM 59.0833 -136.2667 107° East 610 702 35,000  Level Anchorage Center
Wed 02:09:46 AM 59.0333 -135.9667 108° East 600 690 35,000  Level Anchorage Center
Wed 02:10:46 AM 59.0000 -135.6500 101° East 600 690 35,000  Level Anchorage Center
Wed 02:11:46 AM 58.9500 -135.3333 107° East 610 702 35,000  Level Anchorage Center
Wed 02:12:46 AM 58.9000 -135.0167 107° East 610 702 35,000  Level Anchorage Center
Wed 02:13:46 AM 58.8500 -134.7000 107° East 610 702 35,000  Level Anchorage Center
Wed 02:14:46 AM 58.8000 -134.3833 107° East 610 702 35,000  Level Anchorage Center
Wed 02:16:00 AM 58.7499 -134.0597 105° East  Level FlightAware Approximate
Wed 02:16:46 AM 58.7000 -133.7667 105° East 620 713 35,000  Level Anchorage Center
Wed 02:18:00 AM 58.6477 -133.4452 107° East  Level FlightAware Approximate
Wed 02:25:00 AM 58.3359 -131.6391 108° East  Level FlightAware Approximate
Wed 02:26:00 AM 58.2885 -131.3841 110° East  Level FlightAware Approximate
Wed 02:27:00 AM 58.2401 -131.1303 110° East  Level FlightAware Approximate
Wed 02:28:00 AM 58.1912 -130.8772 110° East  Level FlightAware Approximate
Wed 02:29:00 AM 58.1418 -130.6248 110° East  Level FlightAware Approximate
Wed 02:30:00 AM 58.1060 -130.3651 105° East  Level FlightAware Approximate
Wed 02:31:00 AM 58.0696 -130.1058 105° East  Level FlightAware Approximate
Wed 02:32:00 AM 58.0328 -129.8471 105° East  Level FlightAware Approximate
Wed 02:33:00 AM 57.9954 -129.5889 105° East  Level FlightAware Approximate
Wed 02:34:00 AM 57.9575 -129.3312 105° East  Level FlightAware Approximate
Wed 02:35:00 AM 57.9191 -129.0741 106° East  Level FlightAware Approximate
Wed 02:36:00 AM 57.8802 -128.8176 106° East  Level FlightAware Approximate
Wed 02:37:00 AM 57.8407 -128.5616 106° East  Level FlightAware Approximate
Wed 02:38:00 AM 57.8008 -128.3061 106° East  Level FlightAware Approximate
Wed 02:39:00 AM 57.7603 -128.0513 106° East  Level FlightAware Approximate
Wed 02:40:00 AM 57.7193 -127.7970 107° East  Level FlightAware Approximate
Wed 02:41:00 AM 57.6778 -127.5433 107° East  Level FlightAware Approximate
Wed 02:42:00 AM 57.6358 -127.2901 107° East  Level FlightAware Approximate
Wed 02:43:00 AM 57.5933 -127.0376 107° East  Level FlightAware Approximate
Wed 02:44:00 AM 57.5503 -126.7857 108° East  Level FlightAware Approximate
Wed 02:45:00 AM 57.5068 -126.5343 108° East  Level FlightAware Approximate
Wed 02:46:00 AM 57.4600 -126.2836 110° East  Level FlightAware Approximate
Wed 02:46:10 AM 56.9167 -125.1833 111° Southeast 610 702 35,000  Level Edmonton Center
Wed 02:47:00 AM 57.4102 -126.0369 110° East  Level FlightAware Approximate
Wed 02:47:10 AM 56.8333 -124.9167 120° Southeast 590 679 35,000  Level Edmonton Center
Wed 02:48:00 AM 57.3599 -125.7910 111° Southeast  Level FlightAware Approximate
Wed 02:48:10 AM 56.7500 -124.6500 120° Southeast 590 679 35,000  Level Edmonton Center
Wed 02:49:00 AM 57.3092 -125.5457 111° Southeast  Level FlightAware Approximate
Wed 02:49:10 AM 56.7000 -124.3500 107° East 590 679 35,000  Level Edmonton Center
Wed 02:50:00 AM 57.2579 -125.3011 111° Southeast  Level FlightAware Approximate
Wed 02:50:10 AM 56.6167 -124.1000 121° Southeast 580 667 35,000  Level Edmonton Center
Wed 02:51:00 AM 57.2062 -125.0572 111° Southeast  Level FlightAware Approximate
Wed 02:51:10 AM 56.5500 -123.8333 114° Southeast 580 667 35,000  Level Edmonton Center
Wed 02:52:10 AM 56.4667 -123.5667 119° Southeast 580 667 35,000  Level Edmonton Center
Wed 02:53:10 AM 56.4167 -123.2833 108° East 570 656 35,000  Level Edmonton Center
Wed 02:54:10 AM 56.3500 -123.0667 119° Southeast 570 656 35,000  Level Edmonton Center
Wed 02:55:10 AM 56.2833 -122.8167 116° Southeast 560 644 35,000  Level Edmonton Center
Wed 02:56:10 AM 56.2000 -122.5500 119° Southeast 560 644 35,000  Level Edmonton Center
Wed 02:57:10 AM 56.1333 -122.3000 115° Southeast 560 644 35,000  Level Edmonton Center
Wed 02:58:10 AM 56.0667 -122.0500 115° Southeast 560 644 35,000  Level Edmonton Center
Wed 02:59:10 AM 55.9833 -121.8000 121° Southeast 560 644 35,000  Level Edmonton Center
Wed 03:00:10 AM 55.9167 -121.5500 115° Southeast 560 644 35,000  Level Edmonton Center
Wed 03:01:10 AM 55.8333 -121.3000 121° Southeast 560 644 35,000  Level Edmonton Center
Wed 03:02:10 AM 55.7667 -121.0500 115° Southeast 560 644 35,000  Level Edmonton Center
Wed 03:03:10 AM 55.7000 -120.8000 115° Southeast 560 644 35,000  Level Edmonton Center
Wed 03:04:10 AM 55.6167 -120.5667 122° Southeast 560 644 35,000  Level Edmonton Center
Wed 03:05:10 AM 55.5500 -120.3167 115° Southeast 550 633 35,000  Level Edmonton Center
Wed 03:06:10 AM 55.5333 -120.0667 97° East 540 621 35,000  Level Edmonton Center
Wed 03:07:10 AM 55.5167 -119.8167 97° East 530 610 35,000  Level Edmonton Center
Wed 03:08:10 AM 55.5000 -119.5333 96° East 530 610 35,000  Level Edmonton Center
Wed 03:09:10 AM 55.4667 -119.2833 103° East 520 598 35,000  Level Edmonton Center
Wed 03:10:10 AM 55.4500 -119.0000 96° East 520 598 35,000  Level Edmonton Center
Wed 03:11:10 AM 55.4333 -118.7667 97° East 520 598 35,000  Level Edmonton Center
Wed 03:12:10 AM 55.4167 -118.5167 97° East 520 598 35,000  Level Edmonton Center
Wed 03:13:10 AM 55.3833 -118.2500 102° East 520 598 35,000  Level Edmonton Center
Wed 03:14:10 AM 55.3667 -118.0000 97° East 520 598 35,000  Level Edmonton Center
Wed 03:15:10 AM 55.3167 -117.7333 108° East 520 598 35,000  Level Edmonton Center
Wed 03:16:10 AM 55.3000 -117.4833 97° East 520 598 35,000  Level Edmonton Center
Wed 03:17:10 AM 55.2667 -117.2333 103° East 520 598 35,000  Level Edmonton Center
Wed 03:18:10 AM 55.2500 -116.9833 97° East 520 598 35,000  Level Edmonton Center
Wed 03:23:22 AM 55.1260 -115.6770 97° East 517 595 35,000  Level FlightAware ADS-B
Wed 03:24:07 AM 55.1080 -115.5130 101° East 517 595 35,000  Level FlightAware ADS-B
Wed 03:24:47 AM 55.0830 -115.3290 103° East 518 596 35,000  Level FlightAware ADS-B
Wed 03:25:27 AM 55.0610 -115.1550 102° East 518 596 35,000  Level FlightAware ADS-B
Wed 03:26:42 AM 55.0210 -114.8500 103° East 515 593 35,000  Level FlightAware ADS-B
Wed 03:27:27 AM 55.0010 -114.6880 102° East 515 593 35,000  Level FlightAware ADS-B
Wed 03:28:07 AM 54.9760 -114.5060 103° East 512 589 35,000  Level FlightAware ADS-B
Wed 03:28:42 AM 54.9570 -114.3610 103° East 513 590 35,000  Level FlightAware ADS-B
Wed 03:29:32 AM 54.9310 -114.1700 103° East 512 589 35,000  Level FlightAware ADS-B
Wed 03:30:27 AM 54.9000 -113.9420 103° East 513 590 35,000  Level FlightAware ADS-B
Wed 03:31:02 AM 54.8810 -113.8060 104° East 513 590 35,000  Level FlightAware ADS-B
Wed 03:32:17 AM 54.8410 -113.5260 104° East 511 588 35,000  Level FlightAware ADS-B
Wed 03:33:32 AM 54.7960 -113.2090 104° East 510 587 35,000  Level FlightAware ADS-B
Wed 03:34:12 AM 54.7730 -113.0530 104° East 509 586 35,000  Level FlightAware ADS-B
Wed 03:34:52 AM 54.7510 -112.9030 104° East 511 588 35,000  Level FlightAware ADS-B
Wed 03:35:57 AM 54.7160 -112.6660 104° East 510 587 35,000  Level FlightAware ADS-B
Wed 03:36:47 AM 54.6830 -112.4560 105° East 508 585 35,000  Level FlightAware ADS-B
Wed 03:37:32 AM 54.6550 -112.2710 105° East 510 587 35,000  Level FlightAware ADS-B
Wed 03:38:02 AM 54.6370 -112.1520 105° East 509 586 35,000  Level FlightAware ADS-B
Wed 03:38:57 AM 54.6100 -111.9650 104° East 509 586 35,000  Level FlightAware ADS-B
Wed 03:39:47 AM 54.5790 -111.7820 106° East 506 582 35,000  Level FlightAware ADS-B
Wed 03:40:27 AM 54.5580 -111.6500 105° East 506 582 35,000  Level FlightAware ADS-B
Wed 03:41:17 AM 54.5330 -111.4840 104° East 506 582 35,000  Level FlightAware ADS-B
Wed 03:41:57 AM 54.5120 -111.3510 105° East 506 582 35,000  Level FlightAware ADS-B
Wed 03:42:37 AM 54.4910 -111.2190 105° East 506 582 35,000  Level FlightAware ADS-B
Wed 03:43:17 AM 54.4710 -111.0870 105° East 506 582 35,000  Level FlightAware ADS-B
Wed 03:43:57 AM 54.4500 -110.9540 105° East 506 582 35,000  Level FlightAware ADS-B
Wed 03:44:47 AM 54.4240 -110.7890 105° East 506 582 35,000  Level FlightAware ADS-B
Wed 03:45:27 AM 54.4040 -110.6570 105° East 506 582 35,000  Level FlightAware ADS-B
Wed 03:46:07 AM 54.3830 -110.5250 105° East 506 582 35,000  Level FlightAware ADS-B
Wed 03:46:47 AM 54.3620 -110.3930 105° East 506 582 35,000  Level FlightAware ADS-B
Wed 03:47:27 AM 54.3420 -110.2610 105° East 506 582 35,000  Level FlightAware ADS-B
Wed 03:48:07 AM 54.3210 -110.1290 105° East 506 582 35,000  Level FlightAware ADS-B
Wed 03:48:57 AM 54.2950 -109.9650 105° East 506 582 35,000  Level FlightAware ADS-B
Wed 03:50:10 AM 54.1500 -109.3833 105° East 490 564 35,000  Level Edmonton Center
Wed 03:51:10 AM 54.1000 -109.1500 110° East 490 564 35,000  Level Edmonton Center
Wed 03:52:10 AM 54.0667 -108.9167 104° East 490 564 35,000  Level Edmonton Center
Wed 03:53:10 AM 54.0167 -108.7167 113° Southeast 490 564 35,000  Level Edmonton Center
Wed 03:54:10 AM 53.9667 -108.4667 109° East 490 564 35,000  Level Edmonton Center
Wed 03:55:10 AM 53.9333 -108.2667 106° East 490 564 35,000  Level Edmonton Center
Wed 03:56:10 AM 53.9000 -108.0333 104° East 480 552 35,000  Level Edmonton Center
Wed 03:57:10 AM 53.8500 -107.8000 110° East 490 564 35,000  Level Edmonton Center
Wed 03:58:10 AM 53.8167 -107.6000 106° East 490 564 35,000  Level Edmonton Center
Wed 03:59:10 AM 53.7667 -107.3667 110° East 490 564 35,000  Level Edmonton Center
Wed 04:00:10 AM 53.7167 -107.1667 113° Southeast 490 564 35,000  Level Edmonton Center
Wed 04:01:10 AM 53.6667 -106.9333 110° East 490 564 35,000  Level Edmonton Center
Wed 04:02:10 AM 53.6167 -106.7000 110° East 490 564 35,000  Level Edmonton Center
Wed 04:03:10 AM 53.5833 -106.5000 106° East 490 564 35,000  Level Edmonton Center
Wed 04:04:10 AM 53.5333 -106.2667 110° East 490 564 35,000  Level Edmonton Center
Wed 04:05:10 AM 53.4833 -106.0500 111° Southeast 490 564 35,000  Level Edmonton Center
Wed 04:06:10 AM 53.4500 -105.8500 106° East 490 564 35,000  Level Edmonton Center
Wed 04:07:10 AM 53.4000 -105.6167 110° East 490 564 35,000  Level Edmonton Center
Wed 04:08:10 AM 53.3500 -105.4167 113° Southeast 480 552 35,000  Level Edmonton Center
Wed 04:09:10 AM 53.3000 -105.1833 110° East 490 564 35,000  Level Edmonton Center
Wed 04:10:10 AM 53.2500 -104.9667 111° Southeast 490 564 35,000  Level Edmonton Center
Wed 04:11:10 AM 53.2000 -104.7667 113° Southeast 490 564 35,000  Level Edmonton Center
Wed 04:12:10 AM 53.1500 -104.5333 110° East 490 564 35,000  Level Edmonton Center
Wed 04:13:10 AM 53.1000 -104.3500 114° Southeast 490 564 35,000  Level Edmonton Center
Wed 04:18:47 AM 52.8370 -103.1570 114° Southeast 489 563 35,000  Level FlightAware ADS-B
Wed 04:19:32 AM 52.8040 -103.0210 112° Southeast 489 563 35,000  Level FlightAware ADS-B
Wed 04:20:12 AM 52.7650 -102.8680 113° Southeast 488 562 35,000  Level FlightAware ADS-B
Wed 04:21:07 AM 52.7210 -102.6900 112° Southeast 488 562 35,000  Level FlightAware ADS-B
Wed 04:21:47 AM 52.6930 -102.5730 112° Southeast 488 562 35,000  Level FlightAware ADS-B
Wed 04:22:27 AM 52.6640 -102.4550 112° Southeast 488 562 35,000  Level FlightAware ADS-B
Wed 04:23:17 AM 52.6280 -102.3090 112° Southeast 488 562 35,000  Level FlightAware ADS-B
Wed 04:23:52 AM 52.5740 -102.1180 115° Southeast 491 565 35,000  Level FlightAware ADS-B
Wed 04:24:47 AM 52.5260 -101.9320 113° Southeast 491 565 35,000  Level FlightAware ADS-B
Wed 04:25:27 AM 52.4960 -101.8150 113° Southeast 491 565 35,000  Level FlightAware ADS-B
Wed 04:26:07 AM 52.4650 -101.6990 114° Southeast 491 565 35,000  Level FlightAware ADS-B
Wed 04:26:57 AM 52.4280 -101.5530 113° Southeast 491 565 35,000  Level FlightAware ADS-B
Wed 04:27:37 AM 52.3970 -101.4360 113° Southeast 491 565 35,000  Level FlightAware ADS-B
Wed 04:28:17 AM 52.3670 -101.3200 113° Southeast 491 565 35,000  Level FlightAware ADS-B
Wed 04:29:07 AM 52.3290 -101.1740 113° Southeast 491 565 35,000  Level FlightAware ADS-B
Wed 04:29:47 AM 52.2990 -101.0580 113° Southeast 491 565 35,000  Level FlightAware ADS-B
Wed 04:30:27 AM 52.2690 -100.9420 113° Southeast 491 565 35,000  Level FlightAware ADS-B
Wed 04:31:07 AM 52.2390 -100.8260 113° Southeast 491 565 35,000  Level FlightAware ADS-B
Wed 04:31:47 AM 52.2090 -100.7100 113° Southeast 491 565 35,000  Level FlightAware ADS-B
Wed 04:32:27 AM 52.1790 -100.5940 113° Southeast 491 565 35,000  Level FlightAware ADS-B
Wed 04:33:17 AM 52.1410 -100.4490 113° Southeast 491 565 35,000  Level FlightAware ADS-B
Wed 04:33:57 AM 52.1110 -100.3330 113° Southeast 491 565 35,000  Level FlightAware ADS-B
Wed 04:35:10 AM 51.9333 -99.8167 113° Southeast 490 564 35,000  Level Edmonton Center
Wed 04:36:10 AM 51.8667 -99.6000 116° Southeast 490 564 35,000  Level Edmonton Center
Wed 04:37:10 AM 51.8000 -99.3833 116° Southeast 490 564 35,000  Level Edmonton Center
Wed 04:38:10 AM 51.7500 -99.1833 112° Southeast 500 575 35,000  Level Edmonton Center
Wed 04:39:10 AM 51.6833 -99.0000 120° Southeast 490 564 35,000  Level Edmonton Center
Wed 04:40:10 AM 51.6167 -98.7833 116° Southeast 490 564 35,000  Level Edmonton Center
Wed 04:41:10 AM 51.5500 -98.5833 118° Southeast 490 564 35,000  Level Edmonton Center
Wed 04:42:10 AM 51.5167 -98.4000 106° East 490 564 35,000  Level Edmonton Center
Wed 04:43:10 AM 51.4500 -98.1833 116° Southeast 490 564 35,000  Level Edmonton Center
Wed 04:44:10 AM 51.3833 -97.9833 118° Southeast 490 564 35,000  Level Edmonton Center
Wed 04:45:10 AM 51.3167 -97.7667 116° Southeast 490 564 35,000  Level Edmonton Center
Wed 04:46:10 AM 51.2667 -97.6000 116° Southeast 490 564 35,000  Level Edmonton Center
Wed 04:47:10 AM 51.2000 -97.3833 116° Southeast 490 564 35,000  Level Edmonton Center
Wed 04:48:10 AM 51.1333 -97.1833 118° Southeast 490 564 35,000  Level Edmonton Center
Wed 04:49:10 AM 51.0667 -97.0000 120° Southeast 490 564 35,000  Level Edmonton Center
Wed 04:50:10 AM 51.0000 -96.8000 118° Southeast 500 575 35,000  Level Edmonton Center
Wed 04:51:10 AM 50.9500 -96.6000 112° Southeast 500 575 35,000  Level Edmonton Center
Wed 04:52:10 AM 50.8833 -96.4000 118° Southeast 500 575 35,000  Level Edmonton Center
Wed 04:53:10 AM 50.8167 -96.2167 120° Southeast 500 575 35,000  Level Edmonton Center
Wed 04:54:10 AM 50.7500 -96.0167 118° Southeast 500 575 35,000  Level Edmonton Center
Wed 04:55:10 AM 50.6833 -95.8167 118° Southeast 510 587 35,000  Level Edmonton Center
Wed 04:56:10 AM 50.6167 -95.6167 118° Southeast 510 587 35,000  Level Edmonton Center
Wed 04:57:10 AM 50.5500 -95.4167 118° Southeast 510 587 35,000  Level Edmonton Center
Wed 04:58:10 AM 50.4833 -95.2500 122° Southeast 510 587 35,000  Level Edmonton Center
Wed 04:59:07 AM 50.4333 -95.0500 111° Southeast 510 587 35,000  Level Winnipeg Center
Wed 05:00:07 AM 50.3667 -94.8667 120° Southeast 510 587 35,000  Level Winnipeg Center
Wed 05:01:07 AM 50.2833 -94.6667 123° Southeast 520 598 35,000  Level Winnipeg Center
Wed 05:02:07 AM 50.2167 -94.4833 120° Southeast 520 598 35,000  Level Winnipeg Center
Wed 05:03:07 AM 50.1500 -94.2833 117° Southeast 520 598 35,000  Level Winnipeg Center
Wed 05:04:07 AM 50.0833 -94.0667 116° Southeast 520 598 35,000  Level Winnipeg Center
Wed 05:05:07 AM 50.0000 -93.8667 123° Southeast 520 598 35,000  Level Winnipeg Center
Wed 05:06:07 AM 49.9333 -93.6833 119° Southeast 520 598 35,000  Level Winnipeg Center
Wed 05:07:07 AM 49.8667 -93.4833 117° Southeast 510 587 35,000 286 Level Winnipeg Center
Wed 05:13:07 AM 49.4580 -92.3860 117° Southeast 510 587 37,000 304 Climbing FlightAware ADS-B
Wed 05:13:42 AM 49.4220 -92.2900 120° Southeast 510 587 37,000  Level FlightAware ADS-B
Wed 05:14:37 AM 49.3500 -92.1070 121° Southeast 504 580 37,000  Level FlightAware ADS-B
Wed 05:15:17 AM 49.3050 -91.9930 121° Southeast 497 572 37,000  Level FlightAware ADS-B
Wed 05:15:57 AM 49.2560 -91.8660 121° Southeast 494 568 37,000  Level FlightAware ADS-B
Wed 05:16:37 AM 49.2090 -91.7480 121° Southeast 493 567 37,000  Level FlightAware ADS-B
Wed 05:17:17 AM 49.1620 -91.6290 121° Southeast 491 565 37,000  Level FlightAware ADS-B
Wed 05:18:02 AM 49.1090 -91.4970 121° Southeast 490 564 37,000  Level FlightAware ADS-B
Wed 05:18:42 AM 49.0600 -91.3740 121° Southeast 490 564 37,000  Level FlightAware ADS-B
Wed 05:19:27 AM 49.0080 -91.2440 121° Southeast 492 566 37,000  Level FlightAware ADS-B
Wed 05:20:12 AM 48.9530 -91.1100 122° Southeast 494 568 37,000  Level FlightAware ADS-B
Wed 05:20:52 AM 48.9050 -90.9910 122° Southeast 494 568 37,000  Level FlightAware ADS-B
Wed 05:21:32 AM 48.8570 -90.8720 121° Southeast 496 571 37,000  Level FlightAware ADS-B
Wed 05:22:17 AM 48.8060 -90.7470 122° Southeast 494 568 37,000  Level FlightAware ADS-B
Wed 05:22:57 AM 48.7580 -90.6320 122° Southeast 492 566 37,000  Level FlightAware ADS-B
Wed 05:23:42 AM 48.7030 -90.5000 122° Southeast 493 567 37,000  Level FlightAware ADS-B
Wed 05:24:22 AM 48.6560 -90.3860 122° Southeast 493 567 37,000  Level FlightAware ADS-B
Wed 05:25:02 AM 48.6040 -90.2610 122° Southeast 495 570 37,000  Level FlightAware ADS-B
Wed 05:25:47 AM 48.5490 -90.1290 122° Southeast 499 574 37,000  Level FlightAware ADS-B
Wed 05:26:27 AM 48.4980 -90.0090 123° Southeast 502 578 37,000  Level FlightAware ADS-B
Wed 05:27:07 AM 48.4490 -89.8930 122° Southeast 504 580 37,000  Level FlightAware ADS-B
Wed 05:27:52 AM 48.3940 -89.7630 122° Southeast 504 580 37,000  Level FlightAware ADS-B
Wed 05:28:32 AM 48.3430 -89.6440 123° Southeast 502 578 37,000  Level FlightAware ADS-B
Wed 05:29:17 AM 48.2870 -89.5130 123° Southeast 504 580 37,000  Level FlightAware ADS-B
Wed 05:29:52 AM 48.2430 -89.4030 121° Southeast 511 588 37,000  Level FlightAware ADS-B
Wed 05:30:37 AM 48.2000 -89.2730 116° Southeast 516 594 37,000  Level FlightAware ADS-B
Wed 05:31:17 AM 48.1640 -89.1640 116° Southeast 516 594 37,000  Level FlightAware ADS-B
Wed 05:32:17 AM 48.0980 -88.9580 116° Southeast 515 593 37,000  Level FlightAware ADS-B
Wed 05:32:57 AM 48.0620 -88.8490 116° Southeast 515 593 37,000  Level FlightAware ADS-B
Wed 05:33:37 AM 48.0260 -88.7410 116° Southeast 515 593 37,000  Level FlightAware ADS-B
Wed 05:34:17 AM 47.9910 -88.6320 116° Southeast 515 593 37,000  Level FlightAware ADS-B
Wed 05:35:07 AM 47.9150 -88.4130 117° Southeast 512 589 37,000  Level FlightAware ADS-B
Wed 05:35:47 AM 47.8800 -88.3060 116° Southeast 512 589 37,000  Level FlightAware ADS-B
Wed 05:36:27 AM 47.8450 -88.1980 116° Southeast 512 589 37,000  Level FlightAware ADS-B
Wed 05:37:07 AM 47.8090 -88.0900 116° Southeast 512 589 37,000  Level FlightAware ADS-B
Wed 05:37:47 AM 47.7420 -87.9090 119° Southeast 505 581 37,000  Level FlightAware ADS-B
Wed 05:38:32 AM 47.7000 -87.7880 117° Southeast 505 581 37,000  Level FlightAware ADS-B
Wed 05:39:17 AM 47.6490 -87.6410 117° Southeast 507 583 37,000  Level FlightAware ADS-B
Wed 05:39:57 AM 47.6130 -87.5350 117° Southeast 507 583 37,000  Level FlightAware ADS-B
Wed 05:40:37 AM 47.5770 -87.4300 117° Southeast 507 583 37,000  Level FlightAware ADS-B
Wed 05:41:17 AM 47.5400 -87.3250 118° Southeast 507 583 37,000  Level FlightAware ADS-B
Wed 05:42:07 AM 47.4950 -87.1930 117° Southeast 507 583 37,000  Level FlightAware ADS-B
Wed 05:42:47 AM 47.4590 -87.0880 117° Southeast 507 583 37,000  Level FlightAware ADS-B
Wed 05:43:27 AM 47.4230 -86.9830 117° Southeast 507 583 37,000  Level FlightAware ADS-B
Wed 05:44:07 AM 47.3860 -86.8780 117° Southeast 507 583 37,000  Level FlightAware ADS-B
Wed 05:44:57 AM 47.2750 -86.5910 120° Southeast 506 582 37,000  Level FlightAware ADS-B
Wed 05:45:37 AM 47.2310 -86.4700 118° Southeast 506 582 37,000  Level FlightAware ADS-B
Wed 05:46:17 AM 47.1870 -86.3510 119° Southeast 506 582 37,000  Level FlightAware ADS-B
Wed 05:47:02 AM 47.1370 -86.2140 118° Southeast 506 582 37,000  Level FlightAware ADS-B
Wed 05:47:42 AM 47.0920 -86.0910 118° Southeast 506 582 37,000  Level FlightAware ADS-B
Wed 05:48:27 AM 47.0430 -85.9590 119° Southeast 507 583 37,000  Level FlightAware ADS-B
Wed 05:49:07 AM 46.9980 -85.8390 119° Southeast 507 583 37,000  Level FlightAware ADS-B
Wed 05:49:47 AM 46.9530 -85.7180 119° Southeast 509 586 37,000  Level FlightAware ADS-B
Wed 05:50:32 AM 46.9000 -85.5790 119° Southeast 512 589 37,000  Level FlightAware ADS-B
Wed 05:51:12 AM 46.8570 -85.4640 119° Southeast 512 589 37,000  Level FlightAware ADS-B
Wed 05:51:52 AM 46.8100 -85.3410 119° Southeast 511 588 37,000  Level FlightAware ADS-B
Wed 05:52:37 AM 46.7570 -85.2020 119° Southeast 508 585 37,000  Level FlightAware ADS-B
Wed 05:53:17 AM 46.7120 -85.0840 119° Southeast 507 583 37,000  Level FlightAware ADS-B
Wed 05:54:02 AM 46.6620 -84.9530 119° Southeast 504 580 37,000  Level FlightAware ADS-B
Wed 05:54:42 AM 46.6160 -84.8340 119° Southeast 500 575 37,000  Level FlightAware ADS-B
Wed 05:55:22 AM 46.5710 -84.7200 120° Southeast 498 573 37,000  Level FlightAware ADS-B
Wed 05:56:07 AM 46.5190 -84.5870 120° Southeast 495 570 37,000  Level FlightAware ADS-B
Wed 05:56:47 AM 46.4730 -84.4700 120° Southeast 494 568 37,000  Level FlightAware ADS-B
Wed 05:57:32 AM 46.4240 -84.3460 120° Southeast 492 566 37,000  Level FlightAware ADS-B
Wed 05:58:12 AM 46.3700 -84.2380 126° Southeast 490 564 37,000  Level FlightAware ADS-B
Wed 05:58:52 AM 46.3180 -84.1290 125° Southeast 490 564 37,000  Level FlightAware ADS-B
Wed 05:59:37 AM 46.2610 -84.0060 124° Southeast 488 562 37,000  Level FlightAware ADS-B
Wed 06:00:17 AM 46.2100 -83.9000 125° Southeast 485 558 37,000  Level FlightAware ADS-B
Wed 06:00:57 AM 46.1560 -83.7950 127° Southeast 481 554 37,000  Level FlightAware ADS-B
Wed 06:01:42 AM 46.1000 -83.6830 126° Southeast 487 560 37,000  Level FlightAware ADS-B
Wed 06:02:22 AM 46.0450 -83.5750 126° Southeast 491 565 37,000  Level FlightAware ADS-B
Wed 06:03:07 AM 45.9850 -83.4570 126° Southeast 496 571 37,000  Level FlightAware ADS-B
Wed 06:03:47 AM 45.9310 -83.3490 126° Southeast 496 571 37,000  Level FlightAware ADS-B
Wed 06:04:27 AM 45.8760 -83.2420 126° Southeast 495 570 37,000  Level FlightAware ADS-B
Wed 06:05:12 AM 45.8160 -83.1240 126° Southeast 494 568 37,000  Level FlightAware ADS-B
Wed 06:05:52 AM 45.7620 -83.0190 126° Southeast 494 568 37,000  Level FlightAware ADS-B
Wed 06:06:37 AM 45.7010 -82.9000 126° Southeast 495 570 37,000  Level FlightAware ADS-B
Wed 06:07:17 AM 45.6450 -82.7920 127° Southeast 493 567 37,000  Level FlightAware ADS-B
Wed 06:07:57 AM 45.5920 -82.6900 127° Southeast 492 566 37,000  Level FlightAware ADS-B
Wed 06:08:37 AM 45.5380 -82.5850 126° Southeast 489 563 37,000  Level FlightAware ADS-B
Wed 06:09:22 AM 45.4790 -82.4730 127° Southeast 488 562 37,000  Level FlightAware ADS-B
Wed 06:10:02 AM 45.4250 -82.3700 127° Southeast 488 562 37,000  Level FlightAware ADS-B
Wed 06:10:47 AM 45.3630 -82.2520 127° Southeast 487 560 37,000  Level FlightAware ADS-B
Wed 06:11:27 AM 45.3090 -82.1500 127° Southeast 488 562 37,000  Level FlightAware ADS-B
Wed 06:12:12 AM 45.2470 -82.0320 127° Southeast 490 564 37,000  Level FlightAware ADS-B
Wed 06:12:52 AM 45.1920 -81.9310 128° Southeast 492 566 37,000  Level FlightAware ADS-B
Wed 06:13:37 AM 45.1310 -81.8160 127° Southeast 495 570 37,000  Level FlightAware ADS-B
Wed 06:14:17 AM 45.0760 -81.7140 127° Southeast 498 573 37,000  Level FlightAware ADS-B
Wed 06:14:57 AM 45.0200 -81.6090 127° Southeast 498 573 37,000  Level FlightAware ADS-B
Wed 06:15:42 AM 44.9590 -81.4970 128° Southeast 500 575 37,000  Level FlightAware ADS-B
Wed 06:16:27 AM 44.8940 -81.3780 128° Southeast 500 575 37,000  Level FlightAware ADS-B
Wed 06:17:02 AM 44.8480 -81.2930 127° Southeast 500 575 37,000  Level FlightAware ADS-B
Wed 06:18:11 AM 44.7333 -81.0833 127° Southeast 500 575 37,000  Level Toronto Center
Wed 06:19:11 AM 44.6333 -80.9500 136° Southeast 500 575 37,000  Level Toronto Center
Wed 06:20:11 AM 44.5667 -80.8000 122° Southeast 500 575 37,000  Level Toronto Center
Wed 06:21:11 AM 44.4667 -80.6667 136° Southeast 490 564 37,000  Level Toronto Center
Wed 06:22:11 AM 44.3833 -80.5167 128° Southeast 490 564 37,000  Level Toronto Center
Wed 06:23:11 AM 44.2833 -80.3833 136° Southeast 490 564 37,000  Level Toronto Center
Wed 06:24:11 AM 44.2000 -80.2333 128° Southeast 490 564 37,000  Level Toronto Center
Wed 06:25:11 AM 44.1000 -80.1000 136° Southeast 490 564 37,000  Level Toronto Center
Wed 06:26:11 AM 44.0167 -79.9500 128° Southeast 490 564 37,000  Level Toronto Center
Wed 06:27:11 AM 43.9500 -79.8000 122° Southeast 490 564 37,000  Level Toronto Center
Wed 06:28:11 AM 43.8833 -79.6167 117° Southeast 490 564 37,000  Level Toronto Center
Wed 06:29:11 AM 43.8167 -79.4500 119° Southeast 500 575 37,000  Level Toronto Center
Wed 06:30:11 AM 43.7500 -79.2833 119° Southeast 490 564 37,000  Level Toronto Center
Wed 06:31:11 AM 43.6833 -79.1333 122° Southeast 490 564 37,000  Level Toronto Center
Wed 06:32:11 AM 43.6333 -78.9500 111° Southeast 490 564 37,000  Level Toronto Center
Wed 06:33:11 AM 43.5667 -78.7833 119° Southeast 490 564 37,000  Level Toronto Center
Wed 06:34:11 AM 43.5167 -78.6167 112° Southeast 490 564 37,000  Level Toronto Center
Wed 06:35:11 AM 43.4333 -78.4333 122° Southeast 490 564 37,000  Level Toronto Center
Wed 06:36:11 AM 43.3833 -78.2833 115° Southeast 490 564 37,000  Level Toronto Center
Wed 06:37:09 AM 43.3456 -78.1511 111° Southeast 485 558 37,000  Level Cleveland Center
Wed 06:38:09 AM 43.2856 -77.9822 116° Southeast 485 558 37,000  Level Cleveland Center
Wed 06:39:09 AM 43.2253 -77.8167 117° Southeast 485 558 37,000  Level Cleveland Center
Wed 06:40:09 AM 43.1650 -77.6486 116° Southeast 485 558 37,000  Level Cleveland Center
Wed 06:41:09 AM 43.1044 -77.4836 117° Southeast 485 558 37,000  Level Cleveland Center
Wed 06:43:11 AM 42.9667 -77.1000 116° Southeast 490 564 37,000  Level Toronto Center
Wed 06:44:11 AM 42.9000 -76.9500 121° Southeast 490 564 37,000  Level Toronto Center
Wed 06:45:02 AM 42.8614 -76.8369 115° Southeast 470 541 37,000  Level Boston Center
Wed 06:46:02 AM 42.7989 -76.6711 117° Southeast 484 557 37,000  Level Boston Center
Wed 06:47:02 AM 42.7383 -76.5086 117° Southeast 484 557 37,000  Level Boston Center
Wed 06:48:02 AM 42.6886 -76.3781 117° Southeast 479 551 37,000  Level Boston Center
Wed 06:53:37 AM 42.3230 -75.4370 117° Southeast 484 557 37,000  Level FlightAware ADS-B
Wed 06:54:17 AM 42.2810 -75.3330 119° Southeast 483 556 37,000 -380 Level FlightAware ADS-B
Wed 06:54:56 AM 42.2381 -75.2245 118° Southeast 482 555 36,500 -2,132 Descending FlightAware ADS-B
Wed 06:55:33 AM 42.1994 -75.1274 118° Southeast 482 555 34,300 -3,205 Descending FlightAware ADS-B
Wed 06:56:09 AM 42.1608 -75.0313 118° Southeast 490 564 32,600 -2,530 Descending FlightAware ADS-B
Wed 06:56:56 AM 42.1101 -74.9055 118° Southeast 484 557 30,800 -2,231 Descending FlightAware ADS-B
Wed 06:57:27 AM 42.0788 -74.8281 119° Southeast 467 537 29,700 -2,063 Descending FlightAware ADS-B
Wed 06:58:00 AM 42.0450 -74.7446 119° Southeast 456 525 28,600 -1,325 Descending FlightAware ADS-B
Wed 06:58:44 AM 42.0010 -74.6359 119° Southeast 447 514 28,000 -434 Descending FlightAware ADS-B
Wed 06:59:23 AM 41.9618 -74.5396 119° Southeast 458 527 28,000 -468 Level FlightAware ADS-B
Wed 07:00:01 AM 41.9232 -74.4451 119° Southeast 454 522 27,400 -1,286 Descending FlightAware ADS-B
Wed 07:00:33 AM 41.8864 -74.3696 123° Southeast 453 521 26,500 -1,556 Descending FlightAware ADS-B
Wed 07:01:22 AM 41.8020 -74.2924 146° Southeast 462 532 25,300 -1,500 Descending FlightAware ADS-B
Wed 07:01:53 AM 41.7423 -74.2589 157° South 458 527 24,500 -1,574 Descending FlightAware ADS-B
Wed 07:02:23 AM 41.6831 -74.2269 158° South 450 518 23,700 -1,475 Descending FlightAware ADS-B
Wed 07:02:54 AM 41.6237 -74.1947 158° South 444 511 23,000 -1,333 Descending FlightAware ADS-B
Wed 07:03:08 AM 41.5977 -74.1804 158° South 447 514 22,700 -1,455 Descending FlightAware ADS-B
Wed 07:03:27 AM 41.5628 -74.1611 158° South 432 497 22,200 -1,440 Descending FlightAware ADS-B
Wed 07:03:58 AM 41.5056 -74.1295 158° South 426 490 21,500 -1,452 Descending FlightAware ADS-B
Wed 07:04:29 AM 41.4494 -74.0989 158° South 419 482 20,700 -1,421 Descending FlightAware ADS-B
Wed 07:04:36 AM 41.4375 -74.0938 162° South 417 480 20,600 -414 Descending FlightAware ADS-B
Wed 07:04:58 AM 41.3946 -74.0834 170° South 417 480 20,500 -364 Descending FlightAware ADS-B
Wed 07:05:09 AM 41.3733 -74.0824 178° South 418 481 20,400 -545 Descending FlightAware ADS-B
Wed 07:05:20 AM 41.3519 -74.0841 183° South 418 481 20,300 -293 Descending FlightAware ADS-B
Wed 07:05:50 AM 41.2942 -74.0907 185° South 419 482 20,200 -265 Descending FlightAware ADS-B
Wed 07:06:28 AM 41.2210 -74.0998 185° South 417 480 20,000 -261 Descending FlightAware ADS-B
Wed 07:06:36 AM 41.2058 -74.1017 185° South 417 480 20,000  Level FlightAware ADS-B
Wed 07:06:59 AM 41.1622 -74.1070 185° South 418 481 20,000  Level FlightAware ADS-B
Wed 07:07:08 AM 41.1449 -74.1090 185° South 418 481 20,000  Level FlightAware ADS-B
Wed 07:07:29 AM 41.1035 -74.1138 185° South 418 481 20,000  Level FlightAware ADS-B
Wed 07:07:38 AM 41.0870 -74.1157 185° South 418 481 20,000 -387 Level FlightAware ADS-B
Wed 07:08:00 AM 41.0440 -74.1205 185° South 409 471 19,800 -600 Descending FlightAware ADS-B
Wed 07:08:08 AM 41.0302 -74.1221 185° South 402 463 19,700 -968 Descending FlightAware ADS-B
Wed 07:08:31 AM 40.9872 -74.1269 185° South 389 448 19,300 -977 Descending FlightAware ADS-B
Wed 07:08:51 AM 40.9530 -74.1299 184° South 377 434 19,000 -750 Descending FlightAware ADS-B
Wed 07:08:55 AM 40.9463 -74.1297 179° South 373 429 19,000  Level FlightAware ADS-B
Wed 07:09:02 AM 40.9341 -74.1278 173° South 365 420 19,000  Level FlightAware ADS-B
Wed 07:09:07 AM 40.9260 -74.1252 166° South 358 412 19,000  Level FlightAware ADS-B
Wed 07:09:12 AM 40.9181 -74.1216 161° South 354 407 19,000  Level FlightAware ADS-B
Wed 07:09:14 AM 40.9151 -74.1199 157° South 352 405 19,000  Level FlightAware ADS-B
Wed 07:09:19 AM 40.9084 -74.1153 153° Southeast 347 399 19,000  Level FlightAware ADS-B
Wed 07:09:22 AM 40.9034 -74.1112 148° Southeast 344 396 19,000 -750 Level FlightAware ADS-B
Wed 07:09:27 AM 40.8980 -74.1058 143° Southeast 342 394 18,900 -1,000 Descending FlightAware ADS-B
Wed 07:09:28 AM 40.8963 -74.1039 140° Southeast 342 394 18,900 -1,500 Level FlightAware ADS-B
Wed 07:09:39 AM 40.8844 -74.0875 134° Southeast 338 389 18,600 -1,313 Descending FlightAware ADS-B
Wed 07:10:00 AM 40.8644 -74.0549 129° Southeast 334 384 18,200 -1,400 Descending FlightAware ADS-B
Wed 07:10:09 AM 40.8551 -74.0398 129° Southeast 332 382 17,900 -1,400 Descending FlightAware ADS-B
Wed 07:10:30 AM 40.8354 -74.0078 129° Southeast 328 377 17,500 -1,355 Descending FlightAware ADS-B
Wed 07:10:40 AM 40.8256 -73.9918 129° Southeast 326 375 17,200 -1,355 Descending FlightAware ADS-B
Wed 07:11:01 AM 40.8063 -73.9600 129° Southeast 321 369 16,800 -1,125 Descending FlightAware ADS-B
Wed 07:11:12 AM 40.7957 -73.9426 129° Southeast 319 367 16,600 -1,364 Descending FlightAware ADS-B
Wed 07:11:45 AM 40.7661 -73.8937 129° Southeast 315 362 15,800 -1,429 Descending FlightAware ADS-B
Wed 07:12:15 AM 40.7385 -73.8479 128° Southeast 310 357 15,100 -1,279 Descending FlightAware ADS-B
Wed 07:12:46 AM 40.7119 -73.8038 129° Southeast 305 351 14,500 -1,313 Descending FlightAware ADS-B
Wed 07:13:19 AM 40.6832 -73.7558 128° Southeast 301 346 13,700 -1,500 Descending FlightAware ADS-B
Wed 07:13:42 AM 40.6624 -73.7244 131° Southeast 297 342 13,100 -1,902 Descending FlightAware ADS-B
Wed 07:14:00 AM 40.6396 -73.7106 155° Southeast 299 344 12,400 -2,323 Descending FlightAware ADS-B
Wed 07:14:13 AM 40.6217 -73.7075 173° South 301 346 11,900 -2,233 Descending FlightAware ADS-B
Wed 07:14:43 AM 40.5800 -73.7060 178° South 298 343 10,800 -2,151 Descending FlightAware ADS-B
Wed 07:15:06 AM 40.5482 -73.7046 178° South 296 341 10,000 -2,154 Descending FlightAware ADS-B
Wed 07:15:22 AM 40.5265 -73.7036 178° South 294 338 9,400 -2,294 Descending FlightAware ADS-B
Wed 07:15:40 AM 40.5020 -73.7025 178° South 293 337 8,700 -2,118 Descending FlightAware ADS-B
Wed 07:15:56 AM 40.4809 -73.7014 178° South 291 335 8,200 -2,063 Descending FlightAware ADS-B
Wed 07:16:12 AM 40.4589 -73.7004 178° South 287 330 7,600 -1,688 Descending FlightAware ADS-B
Wed 07:16:28 AM 40.4379 -73.6996 178° South 280 322 7,300 -1,043 Descending FlightAware ADS-B
Wed 07:16:35 AM 40.4287 -73.6994 179° South 275 316 7,200 -500 Descending FlightAware ADS-B
Wed 07:16:40 AM 40.4226 -73.6998 183° South 274 315 7,200 -667 Level FlightAware ADS-B
Wed 07:16:44 AM 40.4175 -73.7007 188° South 273 314 7,100 -1,714 Descending FlightAware ADS-B
Wed 07:16:47 AM 40.4139 -73.7019 194° South 273 314 7,000 -1,000 Descending FlightAware ADS-B
Wed 07:16:56 AM 40.4039 -73.7080 205° Southwest 271 312 6,900 -1,125 Descending FlightAware ADS-B
Wed 07:17:03 AM 40.3968 -73.7155 219° Southwest 271 312 6,700 -1,412 Descending FlightAware ADS-B
Wed 07:17:13 AM 40.3899 -73.7279 234° Southwest 270 311 6,500 -1,680 Descending FlightAware ADS-B
Wed 07:17:28 AM 40.3816 -73.7506 244° Southwest 270 311 6,000 -1,920 Descending FlightAware ADS-B
Wed 07:17:38 AM 40.3770 -73.7651 247° West 273 314 5,700 -1,846 Descending FlightAware ADS-B
Wed 07:17:41 AM 40.3755 -73.7709 251° West 273 314 5,600 -1,714 Descending FlightAware ADS-B
Wed 07:17:45 AM 40.3745 -73.7764 257° West 272 313 5,500 -1,200 Descending FlightAware ADS-B
Wed 07:17:56 AM 40.3726 -73.7949 262° West 269 310 5,300 -889 Descending FlightAware ADS-B
Wed 07:18:12 AM 40.3712 -73.8200 266° West 263 303 5,100 -1,125 Descending FlightAware ADS-B
Wed 07:18:28 AM 40.3699 -73.8458 266° West 260 299 4,700 -1,059 Descending FlightAware ADS-B
Wed 07:18:46 AM 40.3688 -73.8725 267° West 254 292 4,500 -889 Descending FlightAware ADS-B
Wed 07:18:55 AM 40.3703 -73.8862 278° West 248 285 4,300 -923 Descending FlightAware ADS-B
Wed 07:18:59 AM 40.3721 -73.8923 291° West 245 282 4,300 -545 Level FlightAware ADS-B
Wed 07:19:06 AM 40.3762 -73.9006 303° West 238 274 4,200 -1,000 Descending FlightAware ADS-B
Wed 07:19:11 AM 40.3798 -73.9055 314° West 232 267 4,100 -500 Descending FlightAware ADS-B
Wed 07:19:18 AM 40.3858 -73.9105 328° Northwest 226 260 4,100 -545 Level FlightAware ADS-B
Wed 07:19:22 AM 40.3896 -73.9125 338° Northwest 223 257 4,000 -1,333 Descending FlightAware ADS-B
Wed 07:19:27 AM 40.3946 -73.9142 345° North 221 254 3,900 -600 Descending FlightAware ADS-B
Wed 07:19:42 AM 40.4096 -73.9169 352° North 218 251 3,800 -774 Descending FlightAware ADS-B
Wed 07:19:58 AM 40.4254 -73.9191 354° North 215 247 3,500 -818 Descending FlightAware ADS-B
Wed 07:20:04 AM 40.4312 -73.9185 North 211 243 3,500 -545 Level FlightAware ADS-B
Wed 07:20:09 AM 40.4366 -73.9163 17° North 206 237 3,400 -923 Descending FlightAware ADS-B
Wed 07:20:17 AM 40.4429 -73.9121 27° Northeast 200 230 3,300 -857 Descending FlightAware ADS-B
Wed 07:20:37 AM 40.4585 -73.9003 30° Northeast 188 216 3,000 -837 Descending FlightAware ADS-B
Wed 07:21:00 AM 40.4754 -73.8874 30° Northeast 184 212 2,700 -600 Descending FlightAware ADS-B
Wed 07:21:37 AM 40.4990 -73.8690 31° Northeast 179 206 2,400 -627 Descending FlightAware ADS-B
Wed 07:22:07 AM 40.5210 -73.8520 30° Northeast 161 185 2,000 -750 Descending FlightAware ADS-B
Wed 07:22:17 AM 40.5270 -73.8470 32° Northeast 159 183 1,900 -900 Descending FlightAware ADS-B
Wed 07:22:47 AM 40.5460 -73.8320 31° Northeast 148 170 1,400 -900 Descending FlightAware ADS-B
Wed 07:23:17 AM 40.5630 -73.8190 30° Northeast 140 161 1,000 -655 Descending FlightAware ADS-B
Wed 07:23:42 AM 40.5760 -73.8090 30° Northeast 139 160 800 -764 Descending FlightAware ADS-B
Wed 07:24:12 AM 40.5940 -73.7950 31° Northeast 142 163 300 -1,000 Descending FlightAware ADS-B
Wed 07:24:37 AM 40.6080 -73.7840 31° Northeast 144 166 -720 Descending FlightAware ADS-B
Wed 07:25:07 AM 40.6260 -73.7700 31° Northeast 147 169  Level FlightAware ADS-B

Login

Don't have an account? Register now (free) for customized features, flight alerts, and more!